Time;durP1;ratioP1;P1;durP2;ratioP2;P2;SDS_P1;SDS_P2;PMS_P1;PMS_P2;Temp;Humidity;BMP_temperature;BMP_pressure;BME280_temperature;BME280_humidity;BME280_pressure;Samples;Min_cycle;Max_cycle;Signal;HPM_P1;HPM_P2
2023/01/18 00:00:28;;;;;;;5.57;3.30;;;2.20;77.30;;;;;;5102296;27;20122;-83
2023/01/18 00:02:54;;;;;;;5.93;3.63;;;2.30;77.50;;;;;;5136101;27;20078;-83
2023/01/18 00:05:23;;;;;;;5.70;3.33;;;2.30;77.50;;;;;;5118970;27;20497;-83
2023/01/18 00:07:53;;;;;;;7.90;3.73;;;2.20;77.50;;;;;;5118744;27;20675;-82
2023/01/18 00:10:19;;;;;;;5.07;3.33;;;2.30;77.50;;;;;;5135998;27;20035;-82
2023/01/18 00:12:45;;;;;;;6.80;3.33;;;2.20;77.50;;;;;;5135530;27;20039;-82
2023/01/18 00:15:11;;;;;;;4.77;3.23;;;2.20;77.60;;;;;;5101686;27;20449;-83
2023/01/18 00:17:46;;;;;;;4.07;2.40;;;2.20;77.60;;;;;;5101332;27;20074;-83
2023/01/18 00:20:15;;;;;;;6.63;3.40;;;2.20;77.70;;;;;;5103091;27;20527;-83
2023/01/18 00:22:42;;;;;;;6.00;3.13;;;2.20;77.70;;;;;;5098817;28;20122;-82
2023/01/18 00:25:09;;;;;;;6.27;3.30;;;2.20;77.70;;;;;;5114822;28;20040;-83
2023/01/18 00:27:43;;;;;;;5.37;3.10;;;2.20;77.80;;;;;;5098056;28;20555;-83
2023/01/18 00:30:09;;;;;;;4.80;2.97;;;2.20;77.80;;;;;;5114473;28;20039;-78
2023/01/18 00:32:35;;;;;;;4.73;2.67;;;2.20;77.90;;;;;;5128080;27;20080;-78
2023/01/18 00:35:06;;;;;;;4.40;2.90;;;2.20;77.90;;;;;;5117132;27;20039;-78
2023/01/18 00:37:34;;;;;;;5.37;3.30;;;2.20;77.90;;;;;;5117957;27;20434;-78
2023/01/18 00:40:00;;;;;;;8.47;3.40;;;2.20;77.90;;;;;;5117342;27;20047;-78
2023/01/18 00:45:10;;;;;;;6.53;4.43;;;2.20;77.90;;;;;;5119517;27;20176;-78
2023/01/18 00:47:36;;;;;;;4.77;3.00;;;2.10;77.90;;;;;;5100474;27;20122;-78
2023/01/18 00:50:06;;;;;;;4.20;3.10;;;2.10;77.90;;;;;;5100309;27;20493;-78
2023/01/18 00:52:33;;;;;;;6.73;3.03;;;2.10;77.90;;;;;;5117056;27;20035;-78
2023/01/18 00:55:02;;;;;;;4.83;3.00;;;2.10;77.90;;;;;;5117722;27;20386;-78
2023/01/18 01:02:42;;;;;;;5.57;3.20;;;2.10;78.00;;;;;;5130620;22;20049;-78
2023/01/18 01:08:15;;;;;;;5.20;2.97;;;2.10;78.10;;;;;;5072386;28;20051;-77
2023/01/18 01:10:48;;;;;;;5.25;3.65;;;2.10;78.10;;;;;;5056167;28;20029;-77
2023/01/18 01:27:10;;;;;;;6.80;4.07;;;2.00;77.50;;;;;;5058528;28;20083;-77
2023/01/18 01:29:36;;;;;;;3.57;2.77;;;1.90;77.40;;;;;;5056415;28;20106;-77
2023/01/18 01:32:02;;;;;;;5.57;3.23;;;1.90;77.30;;;;;;5055912;28;20041;-77
2023/01/18 01:34:28;;;;;;;5.47;3.30;;;1.90;77.20;;;;;;5055620;28;20479;-77
2023/01/18 01:36:55;;;;;;;4.20;3.13;;;2.00;77.30;;;;;;5055500;28;20038;-77
2023/01/18 01:39:21;;;;;;;6.80;3.63;;;1.90;77.40;;;;;;5072138;28;20128;-77
2023/01/18 01:41:47;;;;;;;7.00;3.90;;;1.80;77.40;;;;;;5055679;28;20044;-77
2023/01/18 01:44:16;;;;;;;6.27;3.50;;;1.80;77.40;;;;;;5039011;28;20487;-77
2023/01/18 01:46:46;;;;;;;7.03;4.13;;;1.80;77.50;;;;;;5055811;28;20380;-78
2023/01/18 01:49:45;;;;;;;4.70;3.73;;;1.80;77.50;;;;;;5072269;28;20045;-77
2023/01/18 01:52:15;;;;;;;6.30;3.57;;;1.80;77.50;;;;;;5048141;28;20055;-77
2023/01/18 01:54:50;;;;;;;7.43;4.37;;;1.80;77.60;;;;;;5072045;28;20426;-78
2023/01/18 01:57:46;;;;;;;8.10;4.57;;;1.70;77.50;;;;;;5072193;28;20399;-78
2023/01/18 02:00:15;;;;;;;8.03;4.40;;;1.70;77.30;;;;;;5071856;28;20044;-77
2023/01/18 02:02:44;;;;;;;6.97;4.47;;;1.70;77.20;;;;;;5060500;28;20139;-77
2023/01/18 02:05:14;;;;;;;7.20;5.07;;;1.80;77.30;;;;;;5035402;28;20118;-77
2023/01/18 02:07:40;;;;;;;6.73;4.00;;;1.60;77.20;;;;;;5034538;28;20049;-78
2023/01/18 02:10:06;;;;;;;7.03;4.10;;;1.60;77.20;;;;;;5049828;28;20047;-77
2023/01/18 02:12:33;;;;;;;6.90;4.17;;;1.60;77.20;;;;;;5035062;28;20055;-77
2023/01/18 02:14:59;;;;;;;7.90;4.63;;;1.60;77.40;;;;;;5034826;28;20040;-77
2023/01/18 02:17:31;;;;;;;6.70;4.37;;;1.60;77.50;;;;;;5035391;28;20051;-77
2023/01/18 02:20:00;;;;;;;9.60;4.87;;;1.60;77.50;;;;;;5035033;28;20040;-77
2023/01/18 02:22:46;;;;;;;9.10;5.20;;;1.70;77.60;;;;;;5034981;28;20053;-77
2023/01/18 02:25:31;;;;;;;7.23;4.80;;;1.60;77.50;;;;;;5034698;28;20041;-77
2023/01/18 02:28:05;;;;;;;5.45;3.35;;;1.60;77.50;;;;;;5034745;28;20071;-78
2023/01/18 02:30:39;;;;;;;8.50;4.80;;;1.60;77.60;;;;;;5051529;28;20495;-77
2023/01/18 02:33:23;;;;;;;9.63;5.45;;;1.50;77.60;;;;;;5034876;28;20045;-77
2023/01/18 02:35:50;;;;;;;8.07;5.03;;;1.50;77.70;;;;;;5020778;28;20483;-77
2023/01/18 02:38:26;;;;;;;9.47;6.00;;;1.90;77.80;;;;;;5051426;28;20048;-77
2023/01/18 02:40:55;;;;;;;7.30;5.10;;;1.50;77.60;;;;;;5035089;28;20466;-77
2023/01/18 02:49:17;;;;;;;7.47;4.73;;;1.50;77.60;;;;;;5018519;28;20040;-78
2023/01/18 02:51:43;;;;;;;9.23;5.47;;;1.50;77.70;;;;;;5034744;28;20079;-78
2023/01/18 02:54:11;;;;;;;7.67;5.37;;;2.00;78.00;;;;;;5051243;28;20076;-78
2023/01/18 02:56:46;;;;;;;7.83;4.80;;;1.50;77.80;;;;;;5034461;28;20081;-78
2023/01/18 02:59:14;;;;;;;8.70;5.13;;;1.50;77.90;;;;;;5034805;28;20132;-78
2023/01/18 03:01:54;;;;;;;8.07;5.27;;;1.90;78.20;;;;;;5034586;28;20048;-78
2023/01/18 03:04:29;;;;;;;8.43;4.63;;;1.50;77.90;;;;;;5034842;28;20049;-78
2023/01/18 03:07:12;;;;;;;6.87;4.93;;;1.40;77.90;;;;;;5051331;28;20049;-78
2023/01/18 03:09:41;;;;;;;10.27;5.13;;;1.50;78.10;;;;;;5034769;28;20430;-78
2023/01/18 03:12:27;;;;;;;8.27;5.70;;;1.40;78.00;;;;;;5034589;28;20577;-78
2023/01/18 03:15:35;;;;;;;10.13;5.37;;;1.50;78.20;;;;;;5051438;28;20045;-78
2023/01/18 03:18:15;;;;;;;7.57;4.80;;;1.50;78.20;;;;;;5024973;28;20103;-78
2023/01/18 03:20:45;;;;;;;8.27;4.50;;;1.40;78.20;;;;;;5038373;28;20033;-78
2023/01/18 03:23:44;;;;;;;6.73;4.70;;;1.50;78.30;;;;;;5038405;28;20052;-78
2023/01/18 03:26:15;;;;;;;7.50;5.00;;;1.70;78.50;;;;;;5026936;28;20491;-78
2023/01/18 03:34:57;;;;;;;6.90;4.53;;;1.60;78.50;;;;;;5054834;28;20045;-78
2023/01/18 03:37:30;;;;;;;8.90;5.10;;;1.50;78.50;;;;;;5034062;28;20045;-78
2023/01/18 03:40:02;;;;;;;8.53;5.37;;;1.50;78.50;;;;;;5038131;28;20052;-78
2023/01/18 03:42:39;;;;;;;9.23;5.57;;;1.50;78.50;;;;;;5071553;28;20430;-78
2023/01/18 03:45:16;;;;;;;6.47;4.30;;;1.50;78.50;;;;;;5054652;28;20127;-78
2023/01/18 03:47:41;;;;;;;7.83;5.07;;;1.90;78.80;;;;;;5038058;28;20443;-78
2023/01/18 03:50:08;;;;;;;7.47;5.17;;;1.70;78.70;;;;;;5037931;28;20037;-78
2023/01/18 03:52:41;;;;;;;9.63;5.20;;;1.50;78.60;;;;;;5021181;28;20124;-78
2023/01/18 03:55:27;;;;;;;8.43;5.37;;;1.50;78.70;;;;;;5037861;28;20033;-78
2023/01/18 03:58:09;;;;;;;9.13;5.30;;;1.50;78.70;;;;;;5037183;28;20040;-78
2023/01/18 04:00:36;;;;;;;10.80;5.73;;;1.50;78.80;;;;;;5054253;28;20091;-78
2023/01/18 04:03:03;;;;;;;8.60;5.20;;;1.50;78.70;;;;;;5037221;28;20392;-78
2023/01/18 04:05:29;;;;;;;9.83;5.30;;;1.50;78.60;;;;;;5037135;28;20045;-78
2023/01/18 04:07:54;;;;;;;9.40;5.77;;;1.50;78.50;;;;;;5037807;28;20064;-78
2023/01/18 04:10:20;;;;;;;9.37;5.40;;;1.40;78.30;;;;;;5020811;28;20480;-78
2023/01/18 04:12:46;;;;;;;8.80;5.57;;;1.40;78.10;;;;;;5020917;28;20052;-78
2023/01/18 04:15:12;;;;;;;7.77;5.20;;;2.00;78.30;;;;;;5037253;28;20033;-78
2023/01/18 04:17:38;;;;;;;9.37;5.17;;;1.40;77.70;;;;;;5017735;28;20416;-78
2023/01/18 04:20:04;;;;;;;9.47;5.17;;;1.80;77.80;;;;;;5001549;28;20046;-78
2023/01/18 04:22:30;;;;;;;8.50;5.83;;;1.40;77.60;;;;;;5034065;28;20052;-77
2023/01/18 04:24:56;;;;;;;8.07;4.83;;;1.30;77.50;;;;;;5031575;28;20033;-78
2023/01/18 04:27:23;;;;;;;9.13;5.50;;;1.30;77.50;;;;;;5020636;28;20041;-78
2023/01/18 04:29:49;;;;;;;10.03;6.00;;;1.30;77.70;;;;;;5036885;28;20036;-78
2023/01/18 04:32:15;;;;;;;9.10;5.47;;;1.30;77.80;;;;;;5052665;28;20123;-78
2023/01/18 04:34:41;;;;;;;8.47;5.70;;;1.30;77.80;;;;;;5020187;28;20132;-78
2023/01/18 04:37:06;;;;;;;7.27;5.30;;;1.40;77.90;;;;;;5036966;28;20037;-78
2023/01/18 04:39:32;;;;;;;8.57;5.80;;;1.30;77.90;;;;;;5054079;28;20420;-78
2023/01/18 04:41:58;;;;;;;8.73;5.37;;;1.30;77.90;;;;;;5036865;28;20041;-78
2023/01/18 04:44:24;;;;;;;6.90;5.00;;;1.30;77.90;;;;;;5020432;28;20041;-78
2023/01/18 04:46:50;;;;;;;9.63;5.10;;;1.20;77.90;;;;;;5036688;28;20044;-78
2023/01/18 04:49:16;;;;;;;8.37;5.37;;;1.20;77.90;;;;;;5024509;28;20033;-78
2023/01/18 04:51:46;;;;;;;8.93;5.40;;;1.20;78.00;;;;;;5020209;28;20044;-78
2023/01/18 04:54:13;;;;;;;7.30;5.33;;;1.30;78.10;;;;;;5036877;28;20099;-78
2023/01/18 04:56:39;;;;;;;8.60;5.37;;;1.20;78.00;;;;;;5053230;28;20037;-78
2023/01/18 04:59:05;;;;;;;7.83;5.10;;;1.30;78.10;;;;;;5016766;28;20163;-78
2023/01/18 05:01:32;;;;;;;10.50;5.90;;;1.20;78.10;;;;;;5036407;28;20052;-78
2023/01/18 05:03:57;;;;;;;10.90;5.50;;;1.70;78.30;;;;;;5020086;28;20055;-78
2023/01/18 05:06:23;;;;;;;8.97;6.13;;;1.20;78.00;;;;;;5036700;28;20488;-78
2023/01/18 05:08:49;;;;;;;9.10;5.60;;;1.20;78.10;;;;;;5036716;28;20048;-78
2023/01/18 05:11:17;;;;;;;7.97;5.07;;;1.20;78.10;;;;;;5036248;28;20047;-78
2023/01/18 05:13:44;;;;;;;9.10;5.60;;;1.20;78.10;;;;;;5036244;28;20037;-77
2023/01/18 05:16:15;;;;;;;7.90;5.30;;;1.40;78.20;;;;;;5036466;28;20415;-78
2023/01/18 05:18:41;;;;;;;7.57;5.20;;;1.20;78.10;;;;;;5052892;28;20044;-78
2023/01/18 05:21:07;;;;;;;8.77;5.67;;;1.60;78.30;;;;;;5036173;28;20028;-78
2023/01/18 05:23:33;;;;;;;7.87;5.03;;;1.20;78.20;;;;;;5052777;28;20037;-78
2023/01/18 05:25:58;;;;;;;7.80;4.90;;;1.40;78.30;;;;;;5053111;28;20043;-78
2023/01/18 05:28:26;;;;;;;8.07;5.23;;;1.30;78.30;;;;;;5016430;28;20388;-78
2023/01/18 05:30:54;;;;;;;8.73;5.57;;;1.20;78.20;;;;;;5032790;28;20033;-78
2023/01/18 05:33:21;;;;;;;9.80;5.30;;;1.20;78.20;;;;;;5034120;28;20041;-77
2023/01/18 05:35:52;;;;;;;7.40;4.37;;;1.20;78.10;;;;;;5036532;28;20037;-78
2023/01/18 05:38:18;;;;;;;7.73;5.20;;;1.20;78.20;;;;;;5035874;28;20132;-77
2023/01/18 05:40:47;;;;;;;8.80;5.50;;;1.20;78.10;;;;;;5035739;28;20029;-77
2023/01/18 05:43:12;;;;;;;8.37;5.33;;;1.30;78.20;;;;;;5018354;28;20049;-77
2023/01/18 05:45:39;;;;;;;8.83;5.40;;;1.20;78.20;;;;;;5019306;28;20045;-77
2023/01/18 05:48:04;;;;;;;7.40;5.23;;;1.20;78.20;;;;;;5019776;28;20037;-78
2023/01/18 05:50:30;;;;;;;7.83;4.80;;;1.20;78.20;;;;;;5035599;28;20404;-78
2023/01/18 05:52:57;;;;;;;8.43;5.10;;;1.70;78.50;;;;;;5051858;28;20119;-78
2023/01/18 05:55:24;;;;;;;8.53;5.07;;;1.20;78.30;;;;;;5051979;28;20041;-79
2023/01/18 05:57:49;;;;;;;7.60;5.10;;;1.20;78.30;;;;;;5038168;28;20037;-82
2023/01/18 06:00:15;;;;;;;8.43;5.33;;;1.20;78.20;;;;;;5055230;28;20123;-82
2023/01/18 06:02:41;;;;;;;8.50;5.30;;;1.20;78.20;;;;;;5054200;28;20088;-82
2023/01/18 06:05:07;;;;;;;9.40;5.40;;;1.20;78.20;;;;;;5020515;28;20060;-82
2023/01/18 06:07:33;;;;;;;9.67;5.90;;;1.20;78.10;;;;;;5034456;28;20053;-82
2023/01/18 06:09:58;;;;;;;7.53;5.27;;;1.20;78.10;;;;;;5001528;28;20124;-82
2023/01/18 06:12:24;;;;;;;9.93;5.53;;;1.20;78.10;;;;;;5031460;28;20048;-82
2023/01/18 06:14:50;;;;;;;9.03;5.03;;;1.20;78.10;;;;;;5037744;28;20033;-82
2023/01/18 06:17:16;;;;;;;6.30;4.50;;;1.20;78.10;;;;;;5021334;28;20045;-81
2023/01/18 06:19:42;;;;;;;9.70;5.73;;;1.20;78.10;;;;;;5020862;28;20032;-82
2023/01/18 06:22:07;;;;;;;9.03;5.17;;;1.50;78.30;;;;;;5053305;28;20051;-81
2023/01/18 06:24:33;;;;;;;8.83;5.00;;;1.60;78.40;;;;;;5036292;28;20521;-82
2023/01/18 06:26:59;;;;;;;9.70;5.70;;;1.20;78.10;;;;;;5036222;28;20041;-82
2023/01/18 06:29:25;;;;;;;8.10;5.03;;;1.20;78.00;;;;;;5036568;28;20041;-82
2023/01/18 06:31:51;;;;;;;9.00;5.87;;;1.70;78.30;;;;;;5035205;28;20127;-78
2023/01/18 06:34:17;;;;;;;10.43;5.37;;;1.20;78.00;;;;;;5018428;28;20132;-78
2023/01/18 06:36:44;;;;;;;8.77;5.27;;;1.20;77.90;;;;;;5020304;28;20045;-81
2023/01/18 06:39:10;;;;;;;9.27;5.73;;;1.20;77.90;;;;;;5021652;28;20060;-82
2023/01/18 06:41:36;;;;;;;9.53;5.43;;;1.20;77.70;;;;;;5037622;28;20438;-81
2023/01/18 06:44:03;;;;;;;10.30;6.03;;;1.20;77.70;;;;;;5054195;28;20040;-82
2023/01/18 06:46:28;;;;;;;8.27;5.13;;;1.20;77.60;;;;;;5054649;28;20037;-81
2023/01/18 06:48:54;;;;;;;11.20;5.77;;;1.30;77.50;;;;;;5036509;28;20044;-81
2023/01/18 06:51:20;;;;;;;9.13;5.97;;;1.10;77.30;;;;;;5053194;28;20543;-81
2023/01/18 06:53:47;;;;;;;8.93;5.33;;;1.10;77.20;;;;;;5053725;28;20041;-82
2023/01/18 06:56:13;;;;;;;8.43;5.30;;;1.40;77.40;;;;;;5059239;28;20033;-81
2023/01/18 06:58:39;;;;;;;11.10;6.13;;;1.40;77.40;;;;;;5023307;28;20033;-81
2023/01/18 07:01:05;;;;;;;7.80;5.10;;;1.10;77.30;;;;;;5039510;28;20083;-81
2023/01/18 07:03:32;;;;;;;11.07;5.17;;;1.00;77.30;;;;;;5039150;28;20478;-81
2023/01/18 07:05:59;;;;;;;9.97;5.77;;;1.00;77.30;;;;;;5055874;28;20040;-82
2023/01/18 07:08:27;;;;;;;7.20;4.83;;;1.00;77.40;;;;;;5056100;28;20440;-82
2023/01/18 07:10:53;;;;;;;11.00;5.60;;;1.00;77.40;;;;;;5022539;28;20051;-82
2023/01/18 07:13:19;;;;;;;10.27;5.83;;;1.20;77.50;;;;;;5055283;28;20063;-82
2023/01/18 07:15:52;;;;;;;9.87;5.73;;;1.00;77.40;;;;;;5022543;28;20036;-81
2023/01/18 07:18:18;;;;;;;10.37;6.20;;;1.00;77.40;;;;;;5039234;28;20090;-81
2023/01/18 07:20:44;;;;;;;9.67;5.70;;;1.00;77.40;;;;;;5038798;28;20041;-81
2023/01/18 07:23:09;;;;;;;10.80;5.83;;;1.00;77.30;;;;;;5038926;28;20045;-81
2023/01/18 07:25:35;;;;;;;8.37;5.83;;;1.00;77.40;;;;;;5055437;28;20041;-81
2023/01/18 07:28:01;;;;;;;8.57;5.27;;;1.00;77.40;;;;;;5038604;28;20049;-81
2023/01/18 07:30:26;;;;;;;9.47;5.87;;;1.00;77.50;;;;;;5055329;28;20045;-80
2023/01/18 07:32:52;;;;;;;6.53;4.67;;;1.10;77.60;;;;;;5038648;28;20052;-80
2023/01/18 07:35:23;;;;;;;8.47;5.53;;;1.00;77.60;;;;;;5038822;28;20036;-80
2023/01/18 07:37:51;;;;;;;9.67;6.17;;;1.00;77.70;;;;;;5055302;28;20476;-80
2023/01/18 07:40:20;;;;;;;9.60;5.70;;;1.00;77.70;;;;;;5038742;28;20056;-80
2023/01/18 07:42:46;;;;;;;11.53;6.73;;;1.00;77.70;;;;;;5038481;28;20049;-80
2023/01/18 07:45:12;;;;;;;8.23;5.70;;;1.00;77.60;;;;;;5038605;28;20045;-80
2023/01/18 07:47:42;;;;;;;9.33;6.00;;;1.00;77.50;;;;;;5038398;28;20037;-80
2023/01/18 07:50:09;;;;;;;9.87;7.30;;;1.00;77.40;;;;;;5039039;28;20467;-80
2023/01/18 07:52:34;;;;;;;9.60;6.20;;;0.90;77.20;;;;;;5021646;28;20124;-80
2023/01/18 07:55:00;;;;;;;8.40;5.00;;;0.90;77.20;;;;;;5038180;28;20123;-80
2023/01/18 07:57:26;;;;;;;9.70;5.47;;;0.90;77.20;;;;;;5038073;28;20040;-80
2023/01/18 07:59:51;;;;;;;11.60;5.83;;;0.90;77.20;;;;;;5038193;28;20032;-80
2023/01/18 08:02:17;;;;;;;9.37;5.60;;;0.90;77.40;;;;;;5017760;28;20137;-80
2023/01/18 08:04:47;;;;;;;10.63;6.13;;;0.90;77.50;;;;;;5050843;28;20049;-80
2023/01/18 08:07:13;;;;;;;10.07;5.77;;;0.90;77.70;;;;;;5034396;28;20046;-80
2023/01/18 08:09:38;;;;;;;8.93;5.60;;;0.90;77.70;;;;;;5034682;28;20052;-80
2023/01/18 08:12:06;;;;;;;11.43;6.27;;;0.90;77.60;;;;;;5018051;28;20084;-80
2023/01/18 08:14:32;;;;;;;8.90;5.70;;;0.90;77.70;;;;;;5034804;28;20059;-80
2023/01/18 08:16:58;;;;;;;9.93;5.83;;;0.90;77.60;;;;;;5034463;28;20037;-80
2023/01/18 08:19:24;;;;;;;8.70;5.87;;;0.90;77.60;;;;;;5017792;28;20049;-80
2023/01/18 08:21:49;;;;;;;9.50;5.43;;;0.90;77.60;;;;;;5017905;28;20045;-79
2023/01/18 08:24:15;;;;;;;8.50;5.50;;;0.90;77.60;;;;;;5034289;28;20052;-80
2023/01/18 08:26:41;;;;;;;8.93;5.57;;;1.00;77.70;;;;;;5017767;28;20052;-80
2023/01/18 08:29:06;;;;;;;8.47;5.33;;;0.90;77.60;;;;;;5034364;28;20243;-80
2023/01/18 08:31:32;;;;;;;9.30;5.70;;;0.90;77.70;;;;;;5034038;28;20080;-80
2023/01/18 08:33:58;;;;;;;9.87;5.97;;;0.90;77.70;;;;;;5037297;28;20090;-80
2023/01/18 08:36:24;;;;;;;9.93;6.07;;;1.00;77.90;;;;;;5053909;28;20106;-80
2023/01/18 08:38:55;;;;;;;9.20;5.50;;;0.90;77.90;;;;;;5054009;28;20041;-80
2023/01/18 08:41:26;;;;;;;10.30;6.47;;;1.00;78.10;;;;;;5070809;28;20099;-80
2023/01/18 08:43:53;;;;;;;9.67;6.07;;;1.00;78.40;;;;;;5037202;28;20044;-78
2023/01/18 08:46:20;;;;;;;10.00;5.53;;;1.10;78.80;;;;;;5053994;28;20037;-79
2023/01/18 08:48:54;;;;;;;10.60;5.93;;;1.10;78.90;;;;;;5053863;28;20091;-79
2023/01/18 08:51:21;;;;;;;8.43;5.95;;;1.10;79.00;;;;;;5053964;28;20059;-79
2023/01/18 08:53:50;;;;;;;9.33;5.63;;;1.20;79.00;;;;;;5053942;28;20048;-79
2023/01/18 08:56:17;;;;;;;13.50;6.10;;;1.20;79.00;;;;;;5053774;28;20037;-79
2023/01/18 08:58:43;;;;;;;8.27;5.47;;;1.30;79.00;;;;;;5036944;28;20044;-80
2023/01/18 09:01:09;;;;;;;9.80;5.37;;;1.30;79.00;;;;;;5036832;28;20037;-80
2023/01/18 09:03:36;;;;;;;7.50;5.07;;;1.40;79.10;;;;;;5036587;28;20064;-81
2023/01/18 09:06:03;;;;;;;8.80;5.57;;;1.50;79.10;;;;;;5036918;28;20041;-81
2023/01/18 09:08:30;;;;;;;10.97;5.60;;;1.50;79.10;;;;;;5020307;28;20045;-81
2023/01/18 09:11:01;;;;;;;9.93;5.40;;;1.60;79.50;;;;;;5053119;28;20049;-81
2023/01/18 09:13:27;;;;;;;12.33;5.47;;;1.80;80.00;;;;;;5036222;28;20056;-81
2023/01/18 09:16:00;;;;;;;9.77;5.03;;;1.90;79.90;;;;;;5036799;28;20037;-81
2023/01/18 09:18:26;;;;;;;8.30;5.13;;;2.00;79.70;;;;;;5052853;28;20037;-81
2023/01/18 09:20:55;;;;;;;9.20;5.03;;;2.30;79.60;;;;;;5019941;28;20373;-81
2023/01/18 09:23:22;;;;;;;8.83;5.00;;;2.40;79.50;;;;;;5020349;28;20048;-81
2023/01/18 09:25:48;;;;;;;8.87;5.50;;;2.60;79.20;;;;;;5053004;28;20128;-82
2023/01/18 09:28:16;;;;;;;8.53;5.57;;;2.70;78.70;;;;;;5036211;28;20128;-82
2023/01/18 09:30:42;;;;;;;8.13;5.20;;;2.90;78.20;;;;;;5036371;28;20041;-82
2023/01/18 09:33:10;;;;;;;8.50;5.03;;;3.40;77.70;;;;;;5020024;28;20067;-82
2023/01/18 09:35:35;;;;;;;7.80;4.37;;;3.10;77.10;;;;;;5020234;28;20049;-82
2023/01/18 09:38:01;;;;;;;8.65;5.35;;;3.30;76.70;;;;;;5020140;28;20146;-82
2023/01/18 09:40:44;;;;;;;9.10;5.20;;;3.40;76.40;;;;;;5020181;28;20047;-83
2023/01/18 09:43:32;;;;;;;9.70;4.57;;;3.50;76.10;;;;;;5053071;28;20037;-82
2023/01/18 09:45:58;;;;;;;7.72;4.90;;;3.60;75.40;;;;;;5052925;28;20442;-83
2023/01/18 09:48:39;;;;;;;5.38;4.03;;;3.70;75.40;;;;;;5036453;28;20040;-83
2023/01/18 09:51:12;;;;;;;8.88;4.32;;;3.90;74.70;;;;;;5036043;28;20041;-82
2023/01/18 09:54:06;;;;;;;9.57;4.90;;;3.90;74.80;;;;;;5052506;28;20047;-82
2023/01/18 09:56:54;;;;;;;9.30;4.70;;;4.00;74.10;;;;;;5032542;28;20048;-82
2023/01/18 09:59:22;;;;;;;6.65;4.50;;;4.00;73.60;;;;;;5016153;28;20037;-82
2023/01/18 10:01:50;;;;;;;9.07;5.07;;;4.00;73.40;;;;;;5032111;28;20051;-82
2023/01/18 10:04:24;;;;;;;7.40;4.68;;;4.10;73.30;;;;;;4999943;28;20045;-82
2023/01/18 10:06:55;;;;;;;10.02;4.75;;;4.10;72.70;;;;;;5032646;28;20103;-82
2023/01/18 10:09:27;;;;;;;8.68;5.53;;;4.20;72.60;;;;;;5015969;28;20047;-82
2023/01/18 10:12:03;;;;;;;10.25;5.18;;;4.20;72.20;;;;;;5032496;28;20091;-82
2023/01/18 10:14:53;;;;;;;6.68;4.80;;;4.20;72.00;;;;;;5015858;28;20048;-82
2023/01/18 10:17:22;;;;;;;7.38;4.78;;;4.30;71.80;;;;;;5032512;28;20384;-82
2023/01/18 10:19:49;;;;;;;8.60;4.85;;;4.20;72.00;;;;;;5032504;28;20037;-81
2023/01/18 10:22:26;;;;;;;9.77;5.53;;;4.30;72.00;;;;;;5016056;28;20142;-81
2023/01/18 10:25:02;;;;;;;7.15;4.63;;;4.40;71.80;;;;;;5032306;28;20511;-81
2023/01/18 10:27:46;;;;;;;7.07;5.05;;;4.30;71.80;;;;;;5015911;28;20124;-81
2023/01/18 10:30:30;;;;;;;7.72;5.22;;;4.40;71.80;;;;;;5031930;28;20369;-81
2023/01/18 10:32:58;;;;;;;6.50;4.60;;;4.40;71.80;;;;;;5031829;28;20056;-82
2023/01/18 10:35:29;;;;;;;9.38;5.05;;;4.40;71.60;;;;;;4999171;28;20049;-82
2023/01/18 10:38:00;;;;;;;7.38;5.10;;;4.40;71.70;;;;;;5015595;28;20038;-82
2023/01/18 10:40:26;;;;;;;9.10;4.80;;;4.40;71.70;;;;;;5015560;28;20041;-81
2023/01/18 10:43:03;;;;;;;7.65;4.85;;;4.40;71.40;;;;;;5031937;28;20048;-82
2023/01/18 10:45:32;;;;;;;8.05;4.43;;;4.40;71.30;;;;;;4999148;28;20041;-81
2023/01/18 10:48:26;;;;;;;8.23;5.20;;;4.40;71.40;;;;;;5040844;28;20037;-81
2023/01/18 10:51:33;;;;;;;6.85;3.60;;;4.50;71.40;;;;;;5035265;28;20045;-82
2023/01/18 10:54:33;;;;;;;7.88;4.68;;;4.50;71.40;;;;;;5051908;28;20402;-76
2023/01/18 10:57:03;;;;;;;9.38;5.13;;;4.50;71.60;;;;;;5018375;28;20049;-78
2023/01/18 10:59:38;;;;;;;8.27;4.70;;;4.50;71.50;;;;;;5050834;28;20037;-77
2023/01/18 11:02:15;;;;;;;8.65;4.85;;;4.50;71.30;;;;;;5050001;28;20052;-77
2023/01/18 11:04:41;;;;;;;8.25;4.75;;;4.50;71.40;;;;;;5034513;28;20040;-77
2023/01/18 11:07:07;;;;;;;6.82;4.80;;;4.50;71.50;;;;;;5034212;28;20407;-78
2023/01/18 11:09:33;;;;;;;8.73;4.72;;;4.50;71.50;;;;;;5034865;28;20123;-77
2023/01/18 11:12:37;;;;;;;6.95;4.10;;;4.50;71.60;;;;;;5051225;28;20650;-77
2023/01/18 11:15:12;;;;;;;7.25;4.45;;;4.50;71.10;;;;;;5017495;28;20045;-77
2023/01/18 11:17:54;;;;;;;7.38;4.68;;;4.60;71.80;;;;;;5047918;28;20106;-77
2023/01/18 11:20:35;;;;;;;10.13;5.32;;;4.50;71.40;;;;;;5047928;28;20060;-77
2023/01/18 11:23:19;;;;;;;8.45;4.90;;;4.50;71.20;;;;;;5041334;28;20569;-78
2023/01/18 11:26:24;;;;;;;5.55;3.45;;;4.50;71.40;;;;;;5067878;28;20052;-77
2023/01/18 11:29:03;;;;;;;7.13;4.70;;;4.50;71.60;;;;;;5038677;28;20045;-78
2023/01/18 11:31:44;;;;;;;10.93;5.18;;;4.50;71.70;;;;;;5034544;28;20041;-78
2023/01/18 11:34:33;;;;;;;7.72;4.65;;;4.50;71.60;;;;;;5034316;28;20385;-78
2023/01/18 11:37:00;;;;;;;8.80;4.47;;;4.50;71.50;;;;;;5051163;28;20055;-77
2023/01/18 11:39:33;;;;;;;7.22;4.80;;;4.50;71.70;;;;;;5016771;28;20049;-77
2023/01/18 11:42:31;;;;;;;7.38;4.85;;;4.50;72.20;;;;;;5054251;28;20045;-77
2023/01/18 11:45:03;;;;;;;7.65;4.22;;;4.60;71.70;;;;;;5027281;28;20068;-78
2023/01/18 11:47:49;;;;;;;6.90;4.63;;;4.60;72.00;;;;;;5072037;28;20166;-78
2023/01/18 11:50:44;;;;;;;8.45;4.50;;;4.60;72.00;;;;;;5057887;28;20041;-77
2023/01/18 11:53:32;;;;;;;;;;;4.60;72.00;;;;;;5058086;28;20040;-77
2023/01/18 11:56:08;;;;;;;6.90;3.92;;;4.60;72.10;;;;;;5049725;28;19917;-77
2023/01/18 11:58:35;;;;;;;7.25;4.75;;;4.60;72.20;;;;;;5038144;28;20033;-83
2023/01/18 12:01:22;;;;;;;10.88;4.93;;;4.60;72.00;;;;;;5037633;28;20108;-76
2023/01/18 12:03:55;;;;;;;8.98;4.35;;;4.60;71.70;;;;;;5054021;28;20136;-77
2023/01/18 12:06:35;;;;;;;7.85;4.13;;;4.60;71.80;;;;;;5053658;28;20056;-78
2023/01/18 12:09:19;;;;;;;8.90;4.35;;;4.60;71.70;;;;;;5036198;28;20078;-77
2023/01/18 12:12:26;;;;;;;6.38;3.78;;;4.60;71.70;;;;;;5034786;28;20385;-77
2023/01/18 12:14:59;;;;;;;8.32;4.13;;;4.60;71.50;;;;;;5033660;28;20064;-78
2023/01/18 12:17:51;;;;;;;7.40;4.13;;;4.60;71.70;;;;;;5053004;28;20095;-78
2023/01/18 12:20:38;;;;;;;8.45;4.50;;;4.60;71.70;;;;;;5039363;28;20041;-77
2023/01/18 12:23:32;;;;;;;6.60;4.07;;;4.60;71.80;;;;;;5063024;28;20044;-77
2023/01/18 12:26:07;;;;;;;8.98;4.18;;;4.60;71.80;;;;;;5047801;28;20039;-77
2023/01/18 12:28:51;;;;;;;;;;;4.60;71.80;;;;;;5062531;28;20044;-77
2023/01/18 12:31:46;;;;;;;8.15;4.43;;;4.60;72.00;;;;;;5050212;28;19916;-77
2023/01/18 12:34:22;;;;;;;9.13;4.53;;;4.60;72.10;;;;;;5066827;28;20040;-78
2023/01/18 12:37:12;;;;;;;8.85;4.63;;;4.60;72.20;;;;;;5048718;28;20044;-76
2023/01/18 12:39:56;;;;;;;7.13;4.38;;;4.60;72.10;;;;;;5050495;28;20052;-77
2023/01/18 12:42:25;;;;;;;6.95;3.50;;;4.60;72.00;;;;;;5064828;28;20041;-77
2023/01/18 12:45:15;;;;;;;7.72;4.78;;;4.60;72.10;;;;;;5049400;28;20040;-81
2023/01/18 12:48:03;;;;;;;6.88;4.03;;;4.70;72.00;;;;;;5069469;28;20377;-78
2023/01/18 12:50:36;;;;;;;7.43;4.30;;;4.70;72.10;;;;;;5052939;28;20044;-78
2023/01/18 12:53:10;;;;;;;9.68;4.20;;;4.70;72.10;;;;;;5035993;28;20041;-78
2023/01/18 12:55:38;;;;;;;7.68;4.18;;;4.70;72.20;;;;;;5052984;28;20037;-78
2023/01/18 12:58:05;;;;;;;8.50;4.30;;;4.70;72.30;;;;;;5052911;28;20033;-78
2023/01/18 13:00:45;;;;;;;8.63;4.30;;;4.70;72.30;;;;;;5053565;28;20059;-78
2023/01/18 13:03:20;;;;;;;8.90;4.30;;;4.70;72.40;;;;;;5053163;28;20099;-78
2023/01/18 13:06:02;;;;;;;7.40;4.03;;;4.70;72.30;;;;;;5036477;28;20586;-79
2023/01/18 13:08:35;;;;;;;6.35;3.78;;;4.70;72.30;;;;;;5036945;28;20045;-78
2023/01/18 13:11:26;;;;;;;6.30;4.15;;;4.70;72.40;;;;;;5053195;28;20052;-78
2023/01/18 13:14:08;;;;;;;6.78;4.00;;;4.70;72.20;;;;;;5033209;28;20050;-77
2023/01/18 13:16:40;;;;;;;;;;;4.80;72.30;;;;;;5050584;28;20080;-77
2023/01/18 13:19:09;;;;;;;7.13;3.67;;;4.70;72.20;;;;;;5033033;28;19924;-76
2023/01/18 13:21:46;;;;;;;9.13;3.42;;;4.70;72.50;;;;;;5016710;28;20179;-77
2023/01/18 13:24:32;;;;;;;5.40;3.45;;;4.80;72.40;;;;;;5016463;28;20045;-77
2023/01/18 13:27:12;;;;;;;7.57;3.72;;;4.80;72.30;;;;;;5033052;28;20048;-77
2023/01/18 13:29:40;;;;;;;6.97;3.50;;;4.80;72.20;;;;;;5016601;28;20038;-77
2023/01/18 13:32:32;;;;;;;6.22;3.30;;;4.80;72.20;;;;;;5018384;28;20099;-77
2023/01/18 13:35:16;;;;;;;4.88;3.13;;;4.80;72.00;;;;;;5052609;28;20043;-78
2023/01/18 13:37:49;;;;;;;5.97;3.53;;;4.80;72.10;;;;;;5053000;28;20388;-79
2023/01/18 13:40:52;;;;;;;6.72;3.67;;;4.80;72.20;;;;;;5068983;28;20041;-79
2023/01/18 13:43:52;;;;;;;9.05;3.85;;;4.80;71.80;;;;;;5042389;28;20065;-79
2023/01/18 13:46:24;;;;;;;6.68;3.25;;;4.80;71.90;;;;;;5068661;28;20127;-78
2023/01/18 13:48:53;;;;;;;7.50;3.85;;;4.90;72.10;;;;;;5052735;28;20498;-78
2023/01/18 13:51:43;;;;;;;8.82;3.78;;;4.90;72.10;;;;;;5035903;28;20098;-79
2023/01/18 13:54:14;;;;;;;9.30;3.45;;;4.90;71.80;;;;;;5052219;28;20484;-78
2023/01/18 13:57:00;;;;;;;5.72;3.55;;;4.90;72.00;;;;;;5068904;28;20045;-79
2023/01/18 13:59:36;;;;;;;8.85;3.63;;;4.80;71.90;;;;;;5052296;28;20127;-88